createdAt,value
2018-11-04T00:00:27.032Z,26.00
2018-11-04T00:02:55.096Z,33.13
2018-11-04T00:05:23.184Z,25.93
2018-11-04T00:07:52.009Z,24.30
2018-11-04T00:10:20.077Z,30.90
2018-11-04T00:12:48.165Z,35.57
2018-11-04T00:15:16.234Z,29.70
2018-11-04T00:17:44.417Z,28.00
2018-11-04T00:20:13.621Z,28.83
2018-11-04T00:22:41.696Z,25.70
2018-11-04T00:25:11.785Z,33.50
2018-11-04T00:27:39.954Z,28.73
2018-11-04T00:30:10.454Z,26.80
2018-11-04T00:32:38.621Z,32.70
2018-11-04T00:35:07.114Z,29.10
2018-11-04T00:37:35.197Z,27.27
2018-11-04T00:40:03.399Z,32.03
2018-11-04T00:42:31.552Z,26.63
2018-11-04T00:44:59.703Z,26.90
2018-11-04T00:47:28.147Z,28.30
2018-11-04T00:49:56.293Z,29.03
2018-11-04T00:52:24.392Z,27.53
2018-11-04T00:54:52.484Z,27.63
2018-11-04T00:57:20.565Z,28.97
2018-11-04T00:59:48.620Z,31.20
2018-11-04T01:02:16.714Z,29.20
2018-11-04T01:04:44.784Z,27.47
2018-11-04T01:07:12.874Z,28.90
2018-11-04T01:09:40.938Z,30.90
2018-11-04T01:12:09.041Z,29.23
2018-11-04T01:14:37.156Z,23.30
2018-11-04T01:17:05.248Z,27.63
2018-11-04T01:19:33.341Z,29.00
2018-11-04T01:22:01.450Z,27.90
2018-11-04T01:24:29.614Z,45.53
2018-11-04T01:26:57.842Z,32.43
2018-11-04T01:29:26.016Z,34.57
2018-11-04T01:31:54.100Z,31.80
2018-11-04T01:34:22.190Z,36.60
2018-11-04T01:36:50.384Z,29.03
2018-11-04T01:39:18.460Z,29.77
2018-11-04T01:41:46.577Z,31.30
2018-11-04T01:44:14.633Z,32.17
2018-11-04T01:46:43.008Z,31.33
2018-11-04T01:49:11.082Z,28.23
2018-11-04T01:51:39.188Z,31.93
2018-11-04T01:54:07.378Z,36.67
2018-11-04T01:56:35.621Z,33.47
2018-11-04T01:59:04.033Z,26.40
2018-11-04T02:01:32.184Z,33.57
2018-11-04T02:04:00.297Z,28.90
2018-11-04T02:06:28.472Z,21.47
2018-11-04T02:08:56.942Z,23.13
2018-11-04T02:11:25.053Z,32.73
2018-11-04T02:13:53.173Z,27.70
2018-11-04T02:16:21.261Z,26.83
2018-11-04T02:18:49.344Z,26.33
2018-11-04T02:21:17.476Z,32.00
2018-11-04T02:23:45.542Z,25.77
2018-11-04T02:26:13.604Z,26.33
2018-11-04T02:28:41.700Z,28.10
2018-11-04T02:31:09.777Z,22.87
2018-11-04T02:33:37.933Z,27.50
2018-11-04T02:36:06.333Z,35.07
2018-11-04T02:38:34.388Z,28.40
2018-11-04T02:41:02.510Z,31.50
2018-11-04T02:43:30.578Z,26.50
2018-11-04T02:45:58.819Z,27.87
2018-11-04T02:48:26.864Z,23.80
2018-11-04T02:50:54.937Z,25.63
2018-11-04T02:53:23.001Z,26.37
2018-11-04T02:55:51.108Z,32.93
2018-11-04T02:58:19.259Z,27.37
2018-11-04T03:00:47.337Z,26.10
2018-11-04T03:03:15.453Z,28.63
2018-11-04T03:05:43.548Z,26.17
2018-11-04T03:08:11.697Z,25.20
2018-11-04T03:10:39.772Z,23.90
2018-11-04T03:13:07.862Z,25.20
2018-11-04T03:15:35.975Z,28.77
2018-11-04T03:18:04.051Z,36.97
2018-11-04T03:20:32.111Z,26.53
2018-11-04T03:23:00.235Z,28.40
2018-11-04T03:25:28.318Z,37.13
2018-11-04T03:27:56.428Z,29.97
2018-11-04T03:30:24.537Z,31.20
2018-11-04T03:32:52.631Z,34.40
2018-11-04T03:35:20.833Z,33.20
2018-11-04T03:37:48.912Z,29.67
2018-11-04T03:40:17.012Z,34.77
2018-11-04T03:42:45.212Z,32.30
2018-11-04T03:45:13.274Z,33.60
2018-11-04T03:47:41.684Z,42.87
2018-11-04T03:50:11.393Z,36.23
2018-11-04T03:52:39.544Z,42.57
2018-11-04T03:55:08.038Z,40.33
2018-11-04T03:57:36.225Z,37.63
2018-11-04T04:00:04.709Z,37.10
2018-11-04T04:02:32.798Z,41.33
2018-11-04T04:05:00.904Z,57.63
2018-11-04T04:07:29.009Z,50.00
2018-11-04T04:09:57.096Z,42.17
2018-11-04T04:12:25.188Z,52.93
2018-11-04T04:14:53.308Z,46.07
2018-11-04T04:17:21.422Z,52.53
2018-11-04T04:19:49.529Z,46.00
2018-11-04T04:22:17.601Z,43.73
2018-11-04T04:24:45.694Z,40.90
2018-11-04T04:27:13.769Z,46.77
2018-11-04T04:29:41.882Z,41.10
2018-11-04T04:32:09.931Z,42.03
2018-11-04T04:34:38.104Z,49.60
2018-11-04T04:37:06.250Z,39.47
2018-11-04T04:39:34.316Z,39.67
2018-11-04T04:42:02.412Z,40.50
2018-11-04T04:44:30.486Z,42.20
2018-11-04T04:46:58.597Z,43.00
2018-11-04T04:49:26.698Z,38.90
2018-11-04T04:51:54.797Z,42.30
2018-11-04T04:54:22.918Z,45.97
2018-11-04T04:56:50.979Z,40.67
2018-11-04T04:59:19.070Z,39.63
2018-11-04T05:01:47.160Z,47.60
2018-11-04T05:04:15.237Z,48.67
2018-11-04T05:06:43.350Z,45.40
2018-11-04T05:09:11.427Z,47.60
2018-11-04T05:11:39.493Z,52.07
2018-11-04T05:14:07.568Z,52.60
2018-11-04T05:16:35.642Z,50.17
2018-11-04T05:19:03.716Z,44.90
2018-11-04T05:21:31.784Z,47.27
2018-11-04T05:23:59.891Z,51.87
2018-11-04T05:26:27.958Z,47.27
2018-11-04T05:28:56.028Z,51.63
2018-11-04T05:31:24.106Z,50.53
2018-11-04T05:33:52.176Z,52.60
2018-11-04T05:36:20.241Z,56.97
2018-11-04T05:38:48.333Z,56.50
2018-11-04T05:41:16.452Z,51.93
2018-11-04T05:43:44.521Z,63.37
2018-11-04T05:46:12.670Z,45.30
2018-11-04T05:48:40.744Z,41.90
2018-11-04T05:51:08.797Z,48.63
2018-11-04T05:53:39.590Z,50.00
2018-11-04T05:56:08.199Z,53.47
2018-11-04T05:58:36.349Z,49.80
2018-11-04T06:01:04.531Z,56.30
2018-11-04T06:03:32.615Z,51.60
2018-11-04T06:06:00.699Z,53.07
2018-11-04T06:08:28.801Z,57.63
2018-11-04T06:10:56.871Z,71.53
2018-11-04T06:13:24.949Z,54.60
2018-11-04T06:15:53.024Z,60.80
2018-11-04T06:18:21.112Z,52.60
2018-11-04T06:20:49.223Z,65.13
2018-11-04T06:23:17.288Z,57.77
2018-11-04T06:25:45.485Z,55.80
2018-11-04T06:28:13.564Z,68.03
2018-11-04T06:30:41.642Z,57.33
2018-11-04T06:33:09.725Z,50.97
2018-11-04T06:35:37.814Z,49.70
2018-11-04T06:38:06.313Z,59.87
2018-11-04T06:40:34.396Z,70.47
2018-11-04T06:43:02.476Z,63.27
2018-11-04T06:45:30.600Z,72.30
2018-11-04T06:47:58.689Z,54.30
2018-11-04T06:50:26.776Z,55.47
2018-11-04T06:52:54.861Z,58.93
2018-11-04T06:55:22.934Z,59.57
2018-11-04T06:57:51.041Z,67.50
2018-11-04T07:00:19.137Z,60.93
2018-11-04T07:02:47.221Z,65.93
2018-11-04T07:05:15.349Z,53.20
2018-11-04T07:07:43.404Z,49.37
2018-11-04T07:10:11.511Z,66.30
2018-11-04T07:12:39.585Z,63.27
2018-11-04T07:15:07.695Z,57.57
2018-11-04T07:17:35.830Z,53.37
2018-11-04T07:20:04.034Z,60.80
2018-11-04T07:22:31.984Z,58.17
2018-11-04T07:25:00.077Z,59.97
2018-11-04T07:27:28.159Z,64.73
2018-11-04T07:29:56.216Z,49.53
2018-11-04T07:32:24.282Z,48.17
2018-11-04T07:34:52.393Z,62.00
2018-11-04T07:37:20.496Z,55.27
2018-11-04T07:39:48.557Z,63.83
2018-11-04T07:42:16.671Z,59.43
2018-11-04T07:44:44.737Z,68.90
2018-11-04T07:47:12.830Z,63.13
2018-11-04T07:49:40.909Z,56.53
2018-11-04T07:52:08.969Z,66.17
2018-11-04T07:54:37.084Z,58.23
2018-11-04T07:57:05.296Z,53.50
2018-11-04T07:59:33.388Z,61.13
2018-11-04T08:02:01.484Z,56.13
2018-11-04T08:04:29.572Z,51.23
2018-11-04T08:06:57.700Z,46.67
2018-11-04T08:09:25.750Z,60.67
2018-11-04T08:11:53.845Z,89.97
2018-11-04T08:14:21.909Z,55.73
2018-11-04T08:16:49.984Z,213.37
2018-11-04T08:19:18.092Z,175.57
2018-11-04T08:21:46.202Z,147.20
2018-11-04T08:24:14.269Z,191.17
2018-11-04T08:26:42.356Z,109.97
2018-11-04T08:29:10.444Z,86.03
2018-11-04T08:31:38.529Z,68.20
2018-11-04T08:34:06.609Z,58.43
2018-11-04T08:36:34.699Z,65.77
2018-11-04T08:39:02.876Z,71.03
2018-11-04T08:41:30.946Z,58.17
2018-11-04T08:43:59.081Z,56.73
2018-11-04T08:46:27.132Z,56.27
2018-11-04T08:48:55.217Z,52.90
2018-11-04T08:51:23.252Z,55.83
2018-11-04T08:53:51.348Z,53.40
2018-11-04T08:56:19.421Z,54.83
2018-11-04T08:58:47.537Z,49.07
2018-11-04T09:01:15.598Z,48.80
2018-11-04T09:03:43.733Z,53.17
2018-11-04T09:06:11.796Z,45.10
2018-11-04T09:08:39.947Z,44.70
2018-11-04T09:11:08.161Z,45.00
2018-11-04T09:13:36.261Z,54.40
2018-11-04T09:16:04.339Z,51.33
2018-11-04T09:18:32.438Z,53.47
2018-11-04T09:21:00.538Z,52.87
2018-11-04T09:23:28.651Z,49.00
2018-11-04T09:25:56.745Z,48.20
2018-11-04T09:28:24.849Z,39.73
2018-11-04T09:30:52.945Z,46.70
2018-11-04T09:33:21.025Z,49.57
2018-11-04T09:35:49.293Z,55.67
2018-11-04T09:38:17.241Z,60.90
2018-11-04T09:40:45.345Z,46.60
2018-11-04T09:43:13.418Z,43.73
2018-11-04T09:45:41.515Z,41.80
2018-11-04T09:48:09.599Z,53.17
2018-11-04T09:50:37.681Z,43.60
2018-11-04T09:53:06.034Z,39.63
2018-11-04T09:55:34.112Z,48.77
2018-11-04T09:58:02.241Z,41.33
2018-11-04T10:00:30.308Z,52.80
2018-11-04T10:02:58.452Z,41.13
2018-11-04T10:05:26.525Z,37.80
2018-11-04T10:07:54.626Z,44.63
2018-11-04T10:10:22.754Z,41.37
2018-11-04T10:12:50.845Z,43.77
2018-11-04T10:15:18.941Z,43.03
2018-11-04T10:17:47.024Z,43.90
2018-11-04T10:20:15.691Z,45.60
2018-11-04T10:22:43.278Z,37.03
2018-11-04T10:25:12.673Z,47.67
2018-11-04T10:27:41.541Z,39.80
2018-11-04T10:30:12.446Z,43.57
2018-11-04T10:32:40.477Z,38.80
2018-11-04T10:35:09.452Z,38.07
2018-11-04T10:37:38.148Z,39.73
2018-11-04T10:40:07.673Z,34.03
2018-11-04T10:42:35.759Z,36.87
2018-11-04T10:45:04.304Z,42.50
2018-11-04T10:47:32.376Z,27.00
2018-11-04T10:50:00.611Z,39.77
2018-11-04T10:52:28.641Z,33.13
2018-11-04T10:54:56.744Z,35.33
2018-11-04T10:57:24.920Z,29.93
2018-11-04T10:59:53.031Z,32.77
2018-11-04T11:02:21.184Z,38.80
2018-11-04T11:04:49.270Z,28.43
2018-11-04T11:07:17.372Z,30.80
2018-11-04T11:09:45.438Z,35.23
2018-11-04T11:12:13.520Z,35.10
2018-11-04T11:14:41.576Z,37.83
2018-11-04T11:17:09.670Z,34.07
2018-11-04T11:19:37.798Z,34.10
2018-11-04T11:22:05.870Z,36.67
2018-11-04T11:24:33.954Z,30.00
2018-11-04T11:27:02.048Z,32.53
2018-11-04T11:29:30.157Z,30.57
2018-11-04T11:31:58.266Z,34.77
2018-11-04T11:34:26.430Z,30.27
2018-11-04T11:36:54.523Z,36.70
2018-11-04T11:39:22.606Z,31.17
2018-11-04T11:41:50.741Z,33.27
2018-11-04T11:44:18.877Z,32.53
2018-11-04T11:46:47.000Z,34.90
2018-11-04T11:49:15.168Z,33.50
2018-11-04T11:51:43.265Z,32.87
2018-11-04T11:54:11.451Z,44.50
2018-11-04T11:56:39.617Z,38.87
2018-11-04T11:59:07.734Z,27.97
2018-11-04T12:01:35.796Z,39.97
2018-11-04T12:04:03.955Z,33.67
2018-11-04T12:06:32.027Z,31.43
2018-11-04T12:09:00.156Z,38.30
2018-11-04T12:11:28.462Z,32.40
2018-11-04T12:13:56.641Z,29.70
2018-11-04T12:16:24.765Z,32.87
2018-11-04T12:18:52.844Z,32.87
2018-11-04T12:21:20.964Z,32.63
2018-11-04T12:23:49.140Z,32.00
2018-11-04T12:26:17.135Z,31.97
2018-11-04T12:28:45.213Z,32.27
2018-11-04T12:31:13.328Z,31.80
2018-11-04T12:33:41.416Z,32.40
2018-11-04T12:36:09.521Z,32.37
2018-11-04T12:38:37.622Z,30.57
2018-11-04T12:41:06.085Z,33.50
2018-11-04T12:43:34.184Z,30.77
2018-11-04T12:46:02.287Z,32.07
2018-11-04T12:48:30.357Z,31.23
2018-11-04T12:50:58.484Z,30.33
2018-11-04T12:53:26.651Z,29.30
2018-11-04T12:55:54.820Z,28.77
2018-11-04T12:58:22.952Z,33.70
2018-11-04T13:00:51.041Z,47.90
2018-11-04T13:03:19.161Z,25.80
2018-11-04T13:05:47.277Z,31.67
2018-11-04T13:08:15.370Z,31.93
2018-11-04T13:10:43.490Z,27.20
2018-11-04T13:13:11.571Z,29.40
2018-11-04T13:15:39.721Z,37.70
2018-11-04T13:18:07.843Z,31.67
2018-11-04T13:20:35.913Z,29.80
2018-11-04T13:23:04.421Z,40.10
2018-11-04T13:25:32.486Z,39.87
2018-11-04T13:28:00.578Z,41.73
2018-11-04T13:30:28.681Z,40.47
2018-11-04T13:32:56.773Z,47.77
2018-11-04T13:35:24.906Z,37.00
2018-11-04T13:37:53.028Z,36.47
2018-11-04T13:40:21.151Z,42.60
2018-11-04T13:42:49.331Z,40.60
2018-11-04T13:45:17.430Z,38.93
2018-11-04T13:47:45.544Z,34.60
2018-11-04T13:50:14.644Z,42.00
2018-11-04T13:52:43.257Z,38.70
2018-11-04T13:55:11.352Z,42.80
2018-11-04T13:57:40.104Z,37.93
2018-11-04T14:00:11.860Z,39.93
2018-11-04T14:02:39.984Z,42.33
2018-11-04T14:05:08.846Z,32.90
2018-11-04T14:07:37.088Z,44.20
2018-11-04T14:10:06.104Z,39.63
2018-11-04T14:12:34.201Z,56.80
2018-11-04T14:15:02.423Z,45.93
2018-11-04T14:17:30.460Z,40.20
2018-11-04T14:19:58.877Z,41.60
2018-11-04T14:22:27.026Z,40.80
2018-11-04T14:24:55.227Z,34.07
2018-11-04T14:27:23.399Z,35.33
2018-11-04T14:29:51.495Z,33.93
2018-11-04T14:32:19.651Z,29.00
2018-11-04T14:34:47.752Z,33.07
2018-11-04T14:37:15.848Z,33.43
2018-11-04T14:39:43.948Z,34.53
2018-11-04T14:42:12.072Z,41.23
2018-11-04T14:44:40.141Z,33.10
2018-11-04T14:47:08.245Z,38.03
2018-11-04T14:49:36.356Z,41.77
2018-11-04T14:52:04.684Z,38.70
2018-11-04T14:54:32.828Z,30.93
2018-11-04T14:57:00.975Z,35.63
2018-11-04T14:59:29.093Z,37.50
2018-11-04T15:01:57.344Z,31.17
2018-11-04T15:04:25.431Z,27.93
2018-11-04T15:06:53.496Z,32.00
2018-11-04T15:09:21.563Z,31.40
2018-11-04T15:11:49.682Z,33.67
2018-11-04T15:14:17.789Z,33.83
2018-11-04T15:16:45.872Z,30.30
2018-11-04T15:19:13.981Z,31.00
2018-11-04T15:21:42.070Z,33.37
2018-11-04T15:24:10.166Z,26.77
2018-11-04T15:26:38.299Z,28.00
2018-11-04T15:29:06.366Z,33.83
2018-11-04T15:31:34.440Z,29.30
2018-11-04T15:34:02.632Z,29.70
2018-11-04T15:36:30.629Z,39.03
2018-11-04T15:38:58.738Z,30.50
2018-11-04T15:41:26.961Z,29.60
2018-11-04T15:43:55.051Z,36.77
2018-11-04T15:46:23.203Z,38.00
2018-11-04T15:48:51.311Z,32.53
2018-11-04T15:51:19.370Z,38.30
2018-11-04T15:53:47.441Z,34.37
2018-11-04T15:56:15.500Z,27.67
2018-11-04T15:58:43.588Z,40.37
2018-11-04T16:01:11.664Z,30.47
2018-11-04T16:03:39.762Z,32.70
2018-11-04T16:06:07.854Z,26.63
2018-11-04T16:08:35.929Z,28.03
2018-11-04T16:11:04.001Z,33.70
2018-11-04T16:13:32.101Z,33.03
2018-11-04T16:16:00.169Z,31.03
2018-11-04T16:18:28.401Z,22.00
2018-11-04T16:20:56.372Z,24.77
2018-11-04T16:23:24.466Z,23.27
2018-11-04T16:25:52.553Z,32.70
2018-11-04T16:28:20.709Z,26.83
2018-11-04T16:30:48.801Z,25.17
2018-11-04T16:33:16.930Z,19.80
2018-11-04T16:35:45.209Z,26.33
2018-11-04T16:38:13.333Z,22.10
2018-11-04T16:40:41.442Z,29.47
2018-11-04T16:43:09.648Z,24.97
2018-11-04T16:45:37.729Z,32.30
2018-11-04T16:48:05.898Z,24.43
2018-11-04T16:50:34.066Z,27.40
2018-11-04T16:53:02.219Z,29.37
2018-11-04T16:55:30.354Z,22.03
2018-11-04T16:57:58.432Z,32.53
2018-11-04T17:00:26.518Z,26.20
2018-11-04T17:02:54.663Z,22.53
2018-11-04T17:05:22.939Z,27.27
2018-11-04T17:07:50.897Z,34.77
2018-11-04T17:10:19.010Z,32.60
2018-11-04T17:12:47.107Z,32.60
2018-11-04T17:15:15.797Z,26.70
2018-11-04T17:17:44.269Z,31.17
2018-11-04T17:20:16.279Z,40.00
2018-11-04T17:22:44.727Z,34.50
2018-11-04T17:25:13.054Z,29.30
2018-11-04T17:27:41.282Z,31.63
2018-11-04T17:30:13.711Z,27.60
2018-11-04T17:32:41.904Z,34.10
2018-11-04T17:35:11.563Z,39.60
2018-11-04T17:37:40.083Z,30.43
2018-11-04T17:40:10.338Z,30.97
2018-11-04T17:42:38.561Z,29.00
2018-11-04T17:45:08.015Z,38.07
2018-11-04T17:47:36.533Z,26.13
2018-11-04T17:50:04.859Z,29.63
2018-11-04T17:52:33.012Z,36.53
2018-11-04T17:55:01.082Z,27.50
2018-11-04T17:57:29.274Z,33.07
2018-11-04T17:59:57.341Z,27.53
2018-11-04T18:02:25.449Z,29.63
2018-11-04T18:04:53.565Z,29.10
2018-11-04T18:07:21.659Z,31.70
2018-11-04T18:09:49.799Z,29.87
2018-11-04T18:12:17.976Z,46.07
2018-11-04T18:14:46.087Z,42.50
2018-11-04T18:17:14.192Z,33.80
2018-11-04T18:19:42.258Z,35.47
2018-11-04T18:22:10.329Z,32.60
2018-11-04T18:24:38.428Z,34.30
2018-11-04T18:27:06.582Z,27.60
2018-11-04T18:29:34.718Z,26.73
2018-11-04T18:32:02.808Z,33.83
2018-11-04T18:34:30.925Z,37.40
2018-11-04T18:36:59.056Z,33.63
2018-11-04T18:39:27.137Z,25.93
2018-11-04T18:41:55.228Z,32.10
2018-11-04T18:44:23.463Z,31.43
2018-11-04T18:46:51.491Z,30.40
2018-11-04T18:49:19.736Z,35.67
2018-11-04T18:51:47.758Z,40.90
2018-11-04T18:54:15.882Z,37.23
2018-11-04T18:56:44.023Z,29.67
2018-11-04T18:59:12.161Z,32.47
2018-11-04T19:01:40.226Z,33.23
2018-11-04T19:04:08.329Z,37.57
2018-11-04T19:06:36.424Z,44.90
2018-11-04T19:09:06.584Z,33.27
2018-11-04T19:11:34.775Z,33.00
2018-11-04T19:14:02.836Z,43.53
2018-11-04T19:16:31.164Z,46.47
2018-11-04T19:18:59.456Z,45.60
2018-11-04T19:21:27.459Z,40.30
2018-11-04T19:23:55.555Z,41.40
2018-11-04T19:26:23.657Z,39.90
2018-11-04T19:28:51.775Z,40.77
2018-11-04T19:31:20.079Z,33.40
2018-11-04T19:33:48.018Z,35.00
2018-11-04T19:36:16.158Z,44.33
2018-11-04T19:38:44.666Z,32.50
2018-11-04T19:41:12.743Z,36.77
2018-11-04T19:43:40.868Z,35.73
2018-11-04T19:46:09.038Z,32.30
2018-11-04T19:48:37.203Z,40.60
2018-11-04T19:51:05.644Z,31.47
2018-11-04T19:53:33.705Z,32.90
2018-11-04T19:56:01.819Z,30.00
2018-11-04T19:58:29.925Z,33.63
2018-11-04T20:00:58.024Z,26.10
2018-11-04T20:03:26.100Z,30.37
2018-11-04T20:05:54.220Z,30.47
2018-11-04T20:08:22.423Z,27.93
2018-11-04T20:10:50.518Z,30.90
2018-11-04T20:13:23.982Z,34.63
2018-11-04T20:15:51.996Z,33.53
2018-11-04T20:18:25.408Z,25.57
2018-11-04T20:20:53.497Z,28.60
2018-11-04T20:23:21.582Z,30.67
2018-11-04T20:25:55.130Z,28.50
2018-11-04T20:28:23.268Z,25.77
2018-11-04T20:30:51.345Z,29.93
2018-11-04T20:33:19.659Z,26.70
2018-11-04T20:35:47.811Z,35.63
2018-11-04T20:38:15.813Z,30.13
2018-11-04T20:40:49.369Z,26.07
2018-11-04T20:43:17.508Z,25.27
2018-11-04T20:45:45.782Z,27.00
2018-11-04T20:48:19.283Z,27.03
2018-11-04T20:50:52.786Z,30.73
2018-11-04T20:53:20.898Z,30.70
2018-11-04T20:55:54.272Z,27.73
2018-11-04T20:58:22.562Z,32.73
2018-11-04T21:00:50.516Z,31.10
2018-11-04T21:03:18.652Z,28.97
2018-11-04T21:05:46.809Z,53.07
2018-11-04T21:08:15.112Z,58.90
2018-11-04T21:10:43.217Z,40.50
2018-11-04T21:13:11.297Z,38.53
2018-11-04T21:15:39.383Z,35.73
2018-11-04T21:18:07.464Z,39.90
2018-11-04T21:20:35.571Z,92.47
2018-11-04T21:23:03.706Z,162.10
2018-11-04T21:25:32.224Z,41.93
2018-11-04T21:28:00.140Z,26.63
2018-11-04T21:30:28.113Z,33.97
2018-11-04T21:32:56.219Z,26.87
2018-11-04T21:35:24.366Z,28.73
2018-11-04T21:37:52.527Z,26.60
2018-11-04T21:40:20.788Z,30.07
2018-11-04T21:42:49.821Z,26.43
2018-11-04T21:45:17.682Z,33.17
2018-11-04T21:47:46.168Z,30.67
2018-11-04T21:50:14.425Z,27.03
2018-11-04T21:52:42.689Z,28.67
2018-11-04T21:55:12.367Z,29.33
2018-11-04T21:57:41.454Z,27.57
2018-11-04T22:00:11.431Z,26.57
2018-11-04T22:02:39.671Z,30.37
2018-11-04T22:05:08.388Z,27.63
2018-11-04T22:07:36.566Z,25.13
2018-11-04T22:10:06.519Z,34.13
2018-11-04T22:12:34.687Z,25.80
2018-11-04T22:15:02.770Z,25.63
2018-11-04T22:17:30.971Z,26.60
2018-11-04T22:19:59.226Z,23.63
2018-11-04T22:22:27.365Z,25.90
2018-11-04T22:24:55.453Z,25.80
2018-11-04T22:27:23.564Z,31.07
2018-11-04T22:29:51.670Z,29.10
2018-11-04T22:32:19.771Z,29.47
2018-11-04T22:34:47.870Z,27.53
2018-11-04T22:37:15.944Z,35.13
2018-11-04T22:39:44.058Z,35.97
2018-11-04T22:42:12.271Z,28.90
2018-11-04T22:44:40.310Z,31.63
2018-11-04T22:47:08.405Z,43.63
2018-11-04T22:49:36.537Z,28.87
2018-11-04T22:52:05.107Z,26.90
2018-11-04T22:54:33.260Z,33.20
2018-11-04T22:57:01.516Z,31.50
2018-11-04T22:59:29.584Z,28.90
2018-11-04T23:01:57.737Z,31.10
2018-11-04T23:04:31.175Z,31.70
2018-11-04T23:06:59.270Z,24.90
2018-11-04T23:09:27.400Z,28.87
2018-11-04T23:11:55.513Z,35.90
2018-11-04T23:14:23.620Z,41.93
2018-11-04T23:16:51.700Z,35.87
2018-11-04T23:19:19.793Z,39.50
2018-11-04T23:21:47.895Z,33.93
2018-11-04T23:24:15.960Z,39.30
2018-11-04T23:26:44.082Z,34.70
2018-11-04T23:29:12.153Z,29.70
2018-11-04T23:31:40.259Z,25.57
2018-11-04T23:34:08.354Z,30.03
2018-11-04T23:36:36.545Z,28.37
2018-11-04T23:39:06.641Z,26.10
2018-11-04T23:41:34.749Z,31.73
2018-11-04T23:44:02.815Z,25.00
2018-11-04T23:46:30.891Z,31.10
2018-11-04T23:48:59.008Z,27.03
2018-11-04T23:51:27.126Z,29.07
2018-11-04T23:53:55.193Z,34.20
2018-11-04T23:56:23.282Z,32.53
2018-11-04T23:58:51.584Z,26.70
